createdAt,value
2022-09-01T00:04:31.933Z,3.4
2022-09-01T00:10:51.923Z,3.4
2022-09-01T00:17:14.869Z,2.7
2022-09-01T00:23:34.949Z,2.7
2022-09-01T00:29:57.896Z,1.7
2022-09-01T00:36:17.929Z,1.7
2022-09-01T00:42:40.878Z,2.2
2022-09-01T00:49:00.873Z,2.2
2022-09-01T00:55:23.958Z,1
2022-09-01T01:01:44.035Z,1
2022-09-01T01:08:06.935Z,2.1
2022-09-01T01:14:26.884Z,2.1
2022-09-01T01:20:49.941Z,2.3
2022-09-01T01:27:09.902Z,2.3
2022-09-01T01:33:32.928Z,2.6
2022-09-01T01:39:52.871Z,2.6
2022-09-01T01:46:15.985Z,1.4
2022-09-01T01:52:35.892Z,1.4
2022-09-01T01:58:58.925Z,1.4
2022-09-01T02:05:18.917Z,1.4
2022-09-01T02:11:41.867Z,1.3
2022-09-01T02:18:03.272Z,1.3
2022-09-01T02:24:24.906Z,2.7
2022-09-01T02:30:44.998Z,2.7
2022-09-01T02:37:07.876Z,1.6
2022-09-01T02:43:27.942Z,1.6
2022-09-01T02:49:50.885Z,3.4
2022-09-01T02:56:10.934Z,3.4
2022-09-01T03:02:33.887Z,6.5
2022-09-01T03:08:53.957Z,6.5
2022-09-01T03:15:16.916Z,0.8
2022-09-01T03:21:36.913Z,0.8
2022-09-01T03:28:01.725Z,1.4
2022-09-01T03:34:19.888Z,1.4
2022-09-01T03:40:42.967Z,2.4
2022-09-01T03:47:02.887Z,2.4
2022-09-01T03:53:25.910Z,2.8
2022-09-01T04:17:06.817Z,3.2
2022-09-01T04:23:26.899Z,3.2
2022-09-01T04:29:49.912Z,3.1
2022-09-01T04:36:09.879Z,3.1
2022-09-01T04:42:32.882Z,3
2022-09-01T04:48:52.915Z,3
2022-09-01T04:55:15.889Z,4.7
2022-09-01T05:01:35.889Z,4.7
2022-09-01T05:07:58.910Z,2.9
2022-09-01T05:14:18.915Z,2.9
2022-09-01T05:20:41.917Z,1
2022-09-01T05:27:01.881Z,1
2022-09-01T05:33:24.909Z,2.3
2022-09-01T05:39:44.889Z,2.3
2022-09-01T05:46:07.888Z,22.5
2022-09-01T05:52:27.945Z,22.5
2022-09-01T06:05:10.924Z,6.8
2022-09-01T06:11:33.950Z,3.9
2022-09-01T06:17:53.904Z,3.9
2022-09-01T06:24:16.929Z,1.9
2022-09-01T06:30:36.899Z,1.9
2022-09-01T06:36:59.939Z,4.2
2022-09-01T06:43:19.901Z,4.2
2022-09-01T06:49:42.881Z,1.6
2022-09-01T06:56:02.958Z,1.6
2022-09-01T07:02:26.827Z,1.9
2022-09-01T07:21:39.072Z,1.7
2022-09-01T07:27:52.220Z,1.3
2022-09-01T07:34:41.543Z,1.3
2022-09-01T07:53:18.111Z,0.4
2022-09-01T07:59:37.885Z,0.4
2022-09-01T08:06:00.898Z,0.5
2022-09-01T08:12:28.782Z,0.5
2022-09-01T08:18:51.023Z,1.2
2022-09-01T08:25:03.932Z,1.2
2022-09-01T08:31:30.498Z,1.1
2022-09-01T08:37:46.893Z,1.1
2022-09-01T08:44:09.933Z,0.4
2022-09-01T08:50:30.125Z,0.4
2022-09-01T08:56:52.902Z,0.8
2022-09-01T09:03:12.993Z,0.8
2022-09-01T09:09:35.896Z,1
2022-09-01T09:16:07.216Z,1
2022-09-01T09:22:19.546Z,0.2
2022-09-01T09:28:38.920Z,0.2
2022-09-01T09:35:01.885Z,1.9
2022-09-01T09:57:49.927Z,0.7
2022-09-01T10:04:11.843Z,0.7
2022-09-01T10:10:34.928Z,0.7
2022-09-01T10:16:54.920Z,0.7
2022-09-01T10:23:18.195Z,0.8
2022-09-01T10:29:47.360Z,0.8
2022-09-01T10:36:00.876Z,0.8
2022-09-01T10:42:20.988Z,0.8
2022-09-01T10:48:48.336Z,0.7
2022-09-01T10:55:03.937Z,0.7
2022-09-01T11:01:47.689Z,0.8
2022-09-01T11:08:00.273Z,0.8
2022-09-01T11:14:10.178Z,0.8
2022-09-01T11:20:29.943Z,0.8
2022-09-01T11:26:52.961Z,1.1
2022-09-01T11:33:12.874Z,1.1
2022-09-01T11:39:36.352Z,1.2
2022-09-01T11:45:56.169Z,1.2
2022-09-01T11:52:18.951Z,0.6
2022-09-01T11:58:38.905Z,0.6
2022-09-01T12:05:01.883Z,1.6
2022-09-01T12:11:21.934Z,1.6
2022-09-01T12:17:44.886Z,2.2
2022-09-01T12:24:04.961Z,2.2
2022-09-01T12:30:27.910Z,1.7
2022-09-01T12:36:47.895Z,1.7
2022-09-01T12:43:10.939Z,1.1
2022-09-01T12:49:30.880Z,1.1
2022-09-01T12:55:53.889Z,2.2
2022-09-01T13:02:14.022Z,2.2
2022-09-01T13:08:37.622Z,1.5
2022-09-01T13:14:56.925Z,1.5
2022-09-01T13:21:19.896Z,1.6
2022-09-01T13:27:39.896Z,1.6
2022-09-01T13:34:10.480Z,1.6
2022-09-01T13:40:22.921Z,1.6
2022-09-01T13:47:28.168Z,2.3
2022-09-01T13:53:05.882Z,2.3
2022-09-01T13:59:28.894Z,2.2
2022-09-01T14:05:49.697Z,2.2
2022-09-01T14:12:11.895Z,2
2022-09-01T14:18:31.941Z,2
2022-09-01T14:24:54.907Z,1.4
2022-09-01T14:31:12.885Z,1.4
2022-09-01T14:37:35.904Z,3.2
2022-09-01T14:43:57.715Z,3.2
2022-09-01T14:50:20.097Z,0.7
2022-09-01T14:56:38.885Z,0.7
2022-09-01T15:03:01.924Z,0.8
2022-09-01T15:09:21.897Z,0.8
2022-09-01T15:15:44.888Z,1.6
2022-09-01T15:22:04.933Z,1.6
2022-09-01T15:28:27.906Z,1.4
2022-09-01T15:52:44.836Z,4.1
2022-09-01T15:59:04.888Z,4.1
2022-09-01T16:05:27.907Z,6.3
2022-09-01T16:11:47.914Z,6.3
2022-09-01T16:18:11.124Z,0.3
2022-09-01T16:24:30.931Z,0.3
2022-09-01T16:30:53.886Z,1.6
2022-09-01T16:37:13.897Z,1.6
2022-09-01T16:43:36.947Z,3.1
2022-09-01T16:49:56.884Z,3.1
2022-09-01T16:56:19.921Z,1.4
2022-09-01T17:02:39.881Z,1.4
2022-09-01T17:09:02.896Z,1.7
2022-09-01T17:15:22.923Z,1.7
2022-09-01T17:21:45.895Z,0.7
2022-09-01T17:28:05.933Z,0.7
2022-09-01T17:34:28.885Z,0.6
2022-09-01T17:40:48.922Z,0.6
2022-09-01T17:47:11.927Z,0.6
2022-09-01T17:53:31.879Z,0.6
2022-09-01T17:59:54.921Z,1.7
2022-09-01T18:06:14.923Z,1.7
2022-09-01T18:12:37.884Z,0.9
2022-09-01T18:18:57.895Z,0.9
2022-09-01T18:25:20.869Z,1.1
2022-09-01T18:31:40.978Z,1.1
2022-09-01T18:38:03.884Z,0.9
2022-09-01T18:44:24.099Z,0.9
2022-09-01T18:50:46.909Z,0.4
2022-09-01T18:57:06.871Z,0.4
2022-09-01T19:03:29.983Z,0.8
2022-09-01T19:09:50.074Z,0.8
2022-09-01T19:16:13.128Z,1
2022-09-01T19:22:35.203Z,1
2022-09-01T19:28:57.865Z,1.1
2022-09-01T19:35:17.921Z,1.1
2022-09-01T19:41:40.873Z,2
2022-09-01T19:48:00.885Z,2
2022-09-01T19:54:23.902Z,1.2
2022-09-01T20:00:46.639Z,1.2
2022-09-01T20:07:06.959Z,0.7
2022-09-01T20:13:26.869Z,0.7
2022-09-01T20:19:49.919Z,2.2
2022-09-01T20:26:09.886Z,2.2
2022-09-01T20:32:32.888Z,0.6
2022-09-01T20:38:52.924Z,0.6
2022-09-01T20:45:15.872Z,1.3
2022-09-01T20:51:35.933Z,1.3
2022-09-01T20:57:58.892Z,5.3
2022-09-01T21:04:18.868Z,5.3
2022-09-01T21:10:41.940Z,1.9
2022-09-01T21:17:01.911Z,1.9
2022-09-01T21:23:24.901Z,1.7
2022-09-01T21:29:44.896Z,1.7
2022-09-01T21:53:34.876Z,2
2022-09-01T21:59:57.862Z,2
2022-09-01T22:22:54.905Z,4.4
2022-09-01T22:29:14.883Z,4.4
2022-09-01T22:35:37.913Z,4.4
2022-09-01T22:41:57.895Z,4.4
2022-09-01T22:48:20.924Z,1.5
2022-09-01T22:54:40.881Z,1.5
2022-09-01T23:01:04.006Z,0.2
2022-09-01T23:07:23.870Z,0.2
2022-09-01T23:13:46.930Z,2.1
2022-09-01T23:20:06.869Z,2.1
2022-09-01T23:26:29.985Z,2.1
2022-09-01T23:32:49.882Z,2.1
2022-09-01T23:39:12.953Z,0.8
2022-09-01T23:45:35.814Z,0.8
2022-09-01T23:51:55.904Z,0.6
2022-09-01T23:58:15.905Z,0.6
